createdAt,value
2019-05-25T00:00:28.928Z,0.00
2019-05-25T00:01:28.924Z,0.00
2019-05-25T00:02:28.885Z,0.00
2019-05-25T00:03:28.873Z,0.00
2019-05-25T00:04:28.881Z,0.00
2019-05-25T00:05:28.847Z,0.00
2019-05-25T00:06:28.853Z,0.00
2019-05-25T00:07:28.841Z,0.00
2019-05-25T00:08:28.823Z,0.00
2019-05-25T00:09:28.817Z,0.00
2019-05-25T00:10:28.792Z,0.00
2019-05-25T00:11:28.805Z,0.00
2019-05-25T00:12:28.772Z,0.00
2019-05-25T00:13:28.775Z,0.00
2019-05-25T00:14:28.824Z,0.00
2019-05-25T00:15:28.733Z,0.00
2019-05-25T00:16:28.732Z,0.00
2019-05-25T00:17:28.714Z,0.00
2019-05-25T00:18:28.705Z,0.00
2019-05-25T00:19:28.693Z,0.00
2019-05-25T00:20:28.673Z,0.00
2019-05-25T00:21:28.808Z,0.00
2019-05-25T00:22:28.685Z,0.00
2019-05-25T00:23:28.653Z,0.00
2019-05-25T00:24:28.747Z,0.00
2019-05-25T00:25:28.633Z,0.00
2019-05-25T00:26:28.632Z,0.00
2019-05-25T00:27:28.641Z,0.00
2019-05-25T00:28:28.613Z,0.00
2019-05-25T00:29:28.593Z,0.00
2019-05-25T00:30:28.589Z,0.00
2019-05-25T00:31:28.564Z,0.00
2019-05-25T00:32:28.598Z,0.00
2019-05-25T00:33:28.533Z,0.00
2019-05-25T00:34:28.682Z,0.00
2019-05-25T00:35:28.523Z,0.00
2019-05-25T00:36:28.503Z,0.00
2019-05-25T00:37:28.583Z,0.00
2019-05-25T00:38:28.483Z,0.00
2019-05-25T00:39:28.463Z,0.00
2019-05-25T00:40:28.465Z,0.00
2019-05-25T00:41:28.502Z,0.00
2019-05-25T00:42:28.465Z,0.00
2019-05-25T00:43:28.423Z,0.00
2019-05-25T00:44:28.425Z,0.00
2019-05-25T00:45:28.404Z,0.00
2019-05-25T00:46:28.406Z,0.00
2019-05-25T00:47:28.393Z,0.00
2019-05-25T00:48:28.374Z,0.00
2019-05-25T00:49:28.370Z,0.00
2019-05-25T00:50:28.369Z,0.00
2019-05-25T00:51:28.339Z,0.00
2019-05-25T00:52:28.353Z,0.00
2019-05-25T00:53:28.317Z,0.00
2019-05-25T00:54:28.505Z,0.00
2019-05-25T00:55:28.293Z,0.00
2019-05-25T00:56:28.300Z,0.00
2019-05-25T00:57:28.290Z,0.00
2019-05-25T00:58:28.271Z,0.00
2019-05-25T00:59:28.246Z,0.00
2019-05-25T01:00:28.248Z,0.00
2019-05-25T01:01:28.234Z,0.00
2019-05-25T01:02:28.236Z,0.00
2019-05-25T01:03:28.212Z,0.00
2019-05-25T01:04:28.215Z,0.00
2019-05-25T01:05:28.188Z,0.00
2019-05-25T01:06:28.176Z,0.00
2019-05-25T01:07:28.185Z,0.00
2019-05-25T01:08:28.175Z,0.00
2019-05-25T01:09:28.137Z,0.00
2019-05-25T01:10:28.133Z,0.00
2019-05-25T01:11:28.124Z,0.00
2019-05-25T01:12:28.103Z,0.00
2019-05-25T01:13:28.113Z,0.00
2019-05-25T01:14:28.083Z,0.00
2019-05-25T01:15:28.087Z,0.00
2019-05-25T01:16:28.064Z,0.00
2019-05-25T01:17:28.064Z,0.00
2019-05-25T01:18:28.083Z,0.00
2019-05-25T01:19:28.036Z,0.00
2019-05-25T01:20:28.016Z,0.00
2019-05-25T01:21:28.026Z,0.00
2019-05-25T01:22:27.993Z,0.00
2019-05-25T01:23:28.042Z,0.00
2019-05-25T01:24:42.955Z,0.00
2019-05-25T01:25:28.976Z,0.00
2019-05-25T01:26:27.954Z,0.00
2019-05-25T01:27:27.955Z,0.00
2019-05-25T01:28:27.934Z,0.00
2019-05-25T01:29:27.944Z,0.00
2019-05-25T01:30:27.913Z,0.00
2019-05-25T01:31:27.894Z,0.00
2019-05-25T01:32:27.893Z,0.00
2019-05-25T01:33:27.875Z,0.00
2019-05-25T01:34:27.884Z,0.00
2019-05-25T01:35:27.862Z,0.00
2019-05-25T01:36:27.856Z,0.00
2019-05-25T01:37:27.853Z,0.00
2019-05-25T01:38:27.826Z,0.00
2019-05-25T01:39:27.831Z,0.00
2019-05-25T01:40:27.796Z,0.00
2019-05-25T01:41:27.784Z,0.00
2019-05-25T01:42:27.774Z,0.00
2019-05-25T01:43:27.764Z,0.00
2019-05-25T01:44:27.776Z,0.00
2019-05-25T01:45:27.755Z,0.00
2019-05-25T01:46:27.734Z,0.00
2019-05-25T01:47:27.715Z,0.00
2019-05-25T01:48:27.747Z,0.00
2019-05-25T01:49:27.704Z,0.00
2019-05-25T01:50:27.684Z,0.00
2019-05-25T01:51:27.685Z,0.00
2019-05-25T01:52:27.674Z,0.00
2019-05-25T01:53:27.696Z,0.00
2019-05-25T01:54:27.645Z,0.00
2019-05-25T01:55:27.637Z,0.00
2019-05-25T01:56:27.652Z,0.00
2019-05-25T01:57:27.621Z,0.00
2019-05-25T01:58:27.623Z,0.00
2019-05-25T01:59:27.586Z,0.00
2019-05-25T02:00:27.575Z,0.00
2019-05-25T02:01:27.576Z,0.00
2019-05-25T02:02:27.555Z,0.00
2019-05-25T02:03:27.563Z,0.00
2019-05-25T02:04:27.535Z,0.00
2019-05-25T02:05:27.514Z,0.00
2019-05-25T02:06:27.514Z,0.00
2019-05-25T02:07:27.494Z,0.00
2019-05-25T02:08:27.504Z,0.00
2019-05-25T02:09:27.480Z,0.00
2019-05-25T02:10:27.469Z,0.00
2019-05-25T02:11:27.468Z,0.00
2019-05-25T02:12:27.463Z,0.00
2019-05-25T02:13:27.457Z,0.00
2019-05-25T02:14:27.445Z,0.00
2019-05-25T02:15:27.404Z,0.00
2019-05-25T02:16:27.404Z,0.00
2019-05-25T02:17:27.397Z,0.00
2019-05-25T02:18:27.394Z,0.00
2019-05-25T02:19:27.371Z,0.00
2019-05-25T02:20:27.356Z,0.00
2019-05-25T02:21:27.345Z,0.00
2019-05-25T02:22:27.344Z,0.00
2019-05-25T02:23:27.344Z,0.00
2019-05-25T02:24:27.339Z,0.00
2019-05-25T02:25:27.346Z,0.00
2019-05-25T02:26:27.294Z,0.00
2019-05-25T02:27:27.274Z,0.00
2019-05-25T02:28:27.264Z,0.00
2019-05-25T02:29:27.287Z,0.00
2019-05-25T02:30:27.271Z,0.00
2019-05-25T02:31:27.237Z,0.00
2019-05-25T02:32:27.256Z,0.00
2019-05-25T02:33:27.217Z,0.00
2019-05-25T02:34:27.214Z,0.00
2019-05-25T02:35:27.199Z,0.00
2019-05-25T02:36:27.176Z,0.00
2019-05-25T02:37:27.165Z,0.00
2019-05-25T02:38:27.154Z,0.00
2019-05-25T02:39:27.164Z,0.00
2019-05-25T02:40:27.145Z,0.00
2019-05-25T02:41:27.138Z,0.00
2019-05-25T02:42:27.115Z,0.00
2019-05-25T02:43:27.109Z,0.00
2019-05-25T02:44:27.116Z,0.00
2019-05-25T02:45:27.076Z,0.00
2019-05-25T02:46:27.071Z,0.00
2019-05-25T02:47:27.075Z,0.00
2019-05-25T02:48:27.055Z,0.00
2019-05-25T02:49:27.055Z,0.00
2019-05-25T02:50:27.027Z,0.00
2019-05-25T02:51:27.025Z,0.00
2019-05-25T02:52:27.007Z,0.00
2019-05-25T02:53:26.996Z,0.00
2019-05-25T02:54:27.002Z,4.00
2019-05-25T02:55:34.256Z,4.00
2019-05-25T02:56:27.965Z,4.00
2019-05-25T02:57:26.963Z,4.00
2019-05-25T02:58:26.958Z,4.00
2019-05-25T02:59:26.957Z,4.00
2019-05-25T03:00:26.926Z,4.00
2019-05-25T03:01:26.902Z,8.00
2019-05-25T03:02:26.898Z,4.00
2019-05-25T03:03:26.884Z,8.00
2019-05-25T03:04:26.894Z,8.00
2019-05-25T03:05:26.864Z,12.00
2019-05-25T03:06:26.875Z,12.00
2019-05-25T03:07:26.845Z,12.00
2019-05-25T03:08:26.824Z,16.00
2019-05-25T03:09:26.850Z,20.00
2019-05-25T03:10:26.805Z,24.00
2019-05-25T03:11:26.809Z,24.00
2019-05-25T03:12:26.824Z,28.00
2019-05-25T03:13:26.775Z,32.00
2019-05-25T03:14:26.785Z,36.00
2019-05-25T03:15:26.786Z,40.00
2019-05-25T03:16:26.734Z,48.00
2019-05-25T03:17:26.735Z,52.00
2019-05-25T03:18:26.715Z,60.00
2019-05-25T03:19:26.703Z,68.00
2019-05-25T03:20:26.713Z,72.00
2019-05-25T03:21:26.694Z,80.00
2019-05-25T03:22:26.678Z,88.00
2019-05-25T03:23:26.674Z,96.00
2019-05-25T03:24:26.665Z,100.00
2019-05-25T03:25:26.695Z,108.00
2019-05-25T03:26:26.625Z,120.00
2019-05-25T03:27:26.615Z,132.00
2019-05-25T03:28:26.612Z,140.00
2019-05-25T03:29:26.594Z,148.00
2019-05-25T03:30:26.606Z,160.00
2019-05-25T03:31:26.589Z,172.00
2019-05-25T03:32:26.583Z,184.00
2019-05-25T03:33:26.572Z,200.00
2019-05-25T03:34:26.550Z,212.00
2019-05-25T03:35:26.551Z,224.00
2019-05-25T03:36:26.531Z,236.00
2019-05-25T03:37:26.505Z,252.00
2019-05-25T03:38:26.504Z,264.00
2019-05-25T03:39:26.488Z,280.00
2019-05-25T03:40:26.505Z,300.00
2019-05-25T03:41:26.473Z,316.00
2019-05-25T03:42:26.446Z,336.00
2019-05-25T03:43:26.445Z,352.00
2019-05-25T03:44:26.445Z,372.00
2019-05-25T03:45:26.460Z,388.00
2019-05-25T03:46:26.405Z,404.00
2019-05-25T03:47:26.395Z,412.00
2019-05-25T03:48:26.386Z,420.00
2019-05-25T03:49:26.384Z,432.00
2019-05-25T03:50:26.385Z,436.00
2019-05-25T03:51:26.354Z,444.00
2019-05-25T03:52:26.358Z,452.00
2019-05-25T03:53:26.334Z,460.00
2019-05-25T03:54:26.351Z,472.00
2019-05-25T03:55:26.335Z,480.00
2019-05-25T03:56:26.295Z,492.00
2019-05-25T03:57:26.307Z,504.00
2019-05-25T03:58:26.275Z,520.00
2019-05-25T03:59:26.275Z,532.00
2019-05-25T04:00:26.265Z,548.00
2019-05-25T04:01:26.255Z,564.00
2019-05-25T04:02:26.244Z,584.00
2019-05-25T04:03:26.226Z,608.00
2019-05-25T04:04:26.215Z,632.00
2019-05-25T04:05:26.215Z,660.00
2019-05-25T04:06:26.186Z,684.00
2019-05-25T04:07:26.200Z,708.00
2019-05-25T04:08:26.227Z,736.00
2019-05-25T04:09:26.164Z,768.00
2019-05-25T04:10:26.155Z,812.00
2019-05-25T04:11:26.155Z,856.00
2019-05-25T04:12:26.124Z,908.00
2019-05-25T04:13:26.107Z,964.00
2019-05-25T04:14:26.095Z,1020.00
2019-05-25T04:15:26.088Z,1072.00
2019-05-25T04:16:26.105Z,1120.00
2019-05-25T04:17:26.075Z,1168.00
2019-05-25T04:18:26.066Z,1228.00
2019-05-25T04:19:26.048Z,1288.00
2019-05-25T04:20:26.049Z,1336.00
2019-05-25T04:21:26.050Z,1380.00
2019-05-25T04:22:26.025Z,1424.00
2019-05-25T04:23:25.995Z,1448.00
2019-05-25T04:24:26.020Z,1472.00
2019-05-25T04:25:25.986Z,1488.00
2019-05-25T04:26:27.593Z,1500.00
2019-05-25T04:27:25.956Z,1520.00
2019-05-25T04:28:25.945Z,1536.00
2019-05-25T04:29:25.940Z,1556.00
2019-05-25T04:30:25.925Z,1572.00
2019-05-25T04:31:25.941Z,1592.00
2019-05-25T04:32:25.906Z,1612.00
2019-05-25T04:33:25.892Z,1636.00
2019-05-25T04:34:25.893Z,1656.00
2019-05-25T04:35:25.876Z,1676.00
2019-05-25T04:36:25.882Z,1696.00
2019-05-25T04:37:25.844Z,1720.00
2019-05-25T04:38:25.835Z,1736.00
2019-05-25T04:39:25.833Z,1756.00
2019-05-25T04:40:25.819Z,1776.00
2019-05-25T04:41:25.819Z,1796.00
2019-05-25T04:42:25.795Z,1824.00
2019-05-25T04:43:25.784Z,1844.00
2019-05-25T04:44:25.770Z,1856.00
2019-05-25T04:45:25.765Z,1876.00
2019-05-25T04:46:25.764Z,1892.00
2019-05-25T04:47:27.149Z,1912.00
2019-05-25T04:48:25.725Z,1928.00
2019-05-25T04:49:25.715Z,1944.00
2019-05-25T04:50:25.704Z,1960.00
2019-05-25T04:51:25.720Z,1984.00
2019-05-25T04:52:25.675Z,2004.00
2019-05-25T04:53:25.665Z,2020.00
2019-05-25T04:54:25.655Z,2040.00
2019-05-25T04:55:25.645Z,2080.00
2019-05-25T04:56:39.014Z,2104.00
2019-05-25T04:57:26.624Z,2120.00
2019-05-25T04:58:25.622Z,2148.00
2019-05-25T04:59:25.605Z,2200.00
2019-05-25T05:00:25.615Z,2208.00
2019-05-25T05:01:25.597Z,2212.00
2019-05-25T05:02:25.574Z,2228.00
2019-05-25T05:03:25.585Z,2244.00
2019-05-25T05:04:25.545Z,2272.00
2019-05-25T05:05:25.537Z,2300.00
2019-05-25T05:06:25.556Z,2384.00
2019-05-25T05:07:25.527Z,2436.00
2019-05-25T05:08:25.507Z,2484.00
2019-05-25T05:09:25.526Z,2540.00
2019-05-25T05:10:25.478Z,2580.00
2019-05-25T05:11:25.485Z,2612.00
2019-05-25T05:12:25.533Z,2636.00
2019-05-25T05:13:25.445Z,2668.00
2019-05-25T05:14:25.436Z,2692.00
2019-05-25T05:15:25.433Z,2712.00
2019-05-25T05:16:25.416Z,2736.00
2019-05-25T05:17:25.422Z,2768.00
2019-05-25T05:18:25.395Z,2788.00
2019-05-25T05:19:25.386Z,2816.00
2019-05-25T05:20:25.366Z,2840.00
2019-05-25T05:21:25.373Z,2876.00
2019-05-25T05:22:25.383Z,2904.00
2019-05-25T05:23:25.343Z,2940.00
2019-05-25T05:24:25.325Z,2972.00
2019-05-25T05:25:25.315Z,3004.00
2019-05-25T05:26:25.314Z,3032.00
2019-05-25T05:27:25.317Z,3056.00
2019-05-25T05:28:25.284Z,3148.00
2019-05-25T05:29:25.280Z,3196.00
2019-05-25T05:30:25.270Z,3240.00
2019-05-25T05:31:25.256Z,3284.00
2019-05-25T05:32:27.747Z,3320.00
2019-05-25T05:33:25.230Z,3344.00
2019-05-25T05:34:25.217Z,3364.00
2019-05-25T05:35:25.208Z,3388.00
2019-05-25T05:36:25.194Z,3408.00
2019-05-25T05:37:25.214Z,3432.00
2019-05-25T05:38:25.186Z,3464.00
2019-05-25T05:39:25.543Z,3496.00
2019-05-25T05:40:25.149Z,3524.00
2019-05-25T05:41:25.134Z,3552.00
2019-05-25T05:42:25.155Z,3556.00
2019-05-25T05:43:25.127Z,3624.00
2019-05-25T05:44:25.109Z,3640.00
2019-05-25T05:45:25.109Z,3648.00
2019-05-25T05:46:25.084Z,3660.00
2019-05-25T05:47:25.089Z,3668.00
2019-05-25T05:48:25.075Z,3684.00
2019-05-25T05:49:25.059Z,3696.00
2019-05-25T05:50:25.107Z,3704.00
2019-05-25T05:51:25.034Z,3700.00
2019-05-25T05:52:25.036Z,3764.00
2019-05-25T05:53:25.007Z,3776.00
2019-05-25T05:54:25.025Z,3812.00
2019-05-25T05:55:24.992Z,3872.00
2019-05-25T05:56:24.974Z,3924.00
2019-05-25T05:57:24.986Z,3980.00
2019-05-25T05:58:24.955Z,4020.00
2019-05-25T05:59:24.935Z,4036.00
2019-05-25T06:00:24.942Z,4180.00
2019-05-25T06:01:24.935Z,4348.00
2019-05-25T06:02:24.944Z,4484.00
2019-05-25T06:03:24.924Z,4408.00
2019-05-25T06:04:24.886Z,4212.00
2019-05-25T06:05:24.875Z,4084.00
2019-05-25T06:06:24.869Z,4220.00
2019-05-25T06:07:27.438Z,4372.00
2019-05-25T06:08:24.857Z,4604.00
2019-05-25T06:09:24.845Z,5376.00
2019-05-25T06:10:24.817Z,7996.00
2019-05-25T06:11:24.827Z,8576.00
2019-05-25T06:12:24.803Z,6424.00
2019-05-25T06:13:24.816Z,4816.00
2019-05-25T06:14:24.894Z,4740.00
2019-05-25T06:15:24.763Z,4660.00
2019-05-25T06:16:24.763Z,4520.00
2019-05-25T06:17:24.737Z,4332.00
2019-05-25T06:18:24.755Z,4292.00
2019-05-25T06:19:24.726Z,4152.00
2019-05-25T06:20:24.768Z,4076.00
2019-05-25T06:21:24.697Z,4272.00
2019-05-25T06:22:24.685Z,4432.00
2019-05-25T06:23:24.696Z,4452.00
2019-05-25T06:24:24.668Z,4520.00
2019-05-25T06:25:24.664Z,4528.00
2019-05-25T06:26:24.656Z,4532.00
2019-05-25T06:27:27.759Z,4540.00
2019-05-25T06:28:24.635Z,4492.00
2019-05-25T06:29:24.626Z,4612.00
2019-05-25T06:30:24.595Z,4684.00
2019-05-25T06:31:24.627Z,4856.00
2019-05-25T06:32:24.575Z,4892.00
2019-05-25T06:33:24.582Z,4956.00
2019-05-25T06:34:24.575Z,4952.00
2019-05-25T06:35:24.560Z,4920.00
2019-05-25T06:36:24.600Z,4812.00
2019-05-25T06:37:24.543Z,4660.00
2019-05-25T06:38:24.533Z,4520.00
2019-05-25T06:39:24.510Z,4468.00
2019-05-25T06:40:24.497Z,4452.00
2019-05-25T06:41:24.498Z,4452.00
2019-05-25T06:42:24.474Z,4492.00
2019-05-25T06:43:24.476Z,4520.00
2019-05-25T06:44:24.444Z,4544.00
2019-05-25T06:45:24.435Z,4540.00
2019-05-25T06:46:24.506Z,4500.00
2019-05-25T06:47:24.473Z,4412.00
2019-05-25T06:48:24.417Z,4404.00
2019-05-25T06:49:24.405Z,4616.00
2019-05-25T06:50:24.387Z,4724.00
2019-05-25T06:51:24.379Z,4740.00
2019-05-25T06:52:24.365Z,4808.00
2019-05-25T06:53:24.348Z,4900.00
2019-05-25T06:54:24.356Z,5088.00
2019-05-25T06:55:24.336Z,5068.00
2019-05-25T06:56:24.327Z,5112.00
2019-05-25T06:57:24.309Z,5184.00
2019-05-25T06:58:24.307Z,5536.00
2019-05-25T06:59:24.316Z,5516.00
2019-05-25T07:00:24.267Z,5272.00
2019-05-25T07:01:24.276Z,4956.00
2019-05-25T07:02:24.246Z,4900.00
2019-05-25T07:03:24.456Z,4980.00
2019-05-25T07:04:24.238Z,5116.00
2019-05-25T07:05:24.226Z,5420.00
2019-05-25T07:06:24.204Z,5596.00
2019-05-25T07:07:24.199Z,5716.00
2019-05-25T07:08:24.196Z,5856.00
2019-05-25T07:09:24.197Z,5864.00
2019-05-25T07:10:24.166Z,5912.00
2019-05-25T07:11:24.147Z,5896.00
2019-05-25T07:12:24.160Z,5816.00
2019-05-25T07:13:24.131Z,6216.00
2019-05-25T07:14:24.138Z,6704.00
2019-05-25T07:15:24.113Z,6728.00
2019-05-25T07:16:24.100Z,6880.00
2019-05-25T07:17:24.097Z,6944.00
2019-05-25T07:18:24.070Z,6948.00
2019-05-25T07:19:24.086Z,7052.00
2019-05-25T07:20:24.053Z,7252.00
2019-05-25T07:21:24.068Z,7452.00
2019-05-25T07:22:24.037Z,7452.00
2019-05-25T07:23:24.017Z,7264.00
2019-05-25T07:24:24.023Z,7068.00
2019-05-25T07:25:23.995Z,6924.00
2019-05-25T07:26:23.992Z,6896.00
2019-05-25T07:27:23.992Z,6940.00
2019-05-25T07:28:23.967Z,6888.00
2019-05-25T07:29:23.967Z,7192.00
2019-05-25T07:30:23.945Z,7208.00
2019-05-25T07:31:23.936Z,7016.00
2019-05-25T07:32:23.922Z,6820.00
2019-05-25T07:33:23.910Z,6640.00
2019-05-25T07:34:23.921Z,6480.00
2019-05-25T07:35:23.898Z,6444.00
2019-05-25T07:36:23.875Z,6452.00
2019-05-25T07:37:23.857Z,6416.00
2019-05-25T07:38:23.860Z,6400.00
2019-05-25T07:39:23.873Z,6464.00
2019-05-25T07:40:23.877Z,6464.00
2019-05-25T07:41:23.828Z,6372.00
2019-05-25T07:42:23.810Z,6404.00
2019-05-25T07:43:23.798Z,6520.00
2019-05-25T07:44:24.108Z,6596.00
2019-05-25T07:45:23.789Z,6784.00
2019-05-25T07:46:23.765Z,6580.00
2019-05-25T07:47:23.757Z,6532.00
2019-05-25T07:48:23.746Z,6612.00
2019-05-25T07:49:23.752Z,6740.00
2019-05-25T07:50:23.749Z,6912.00
2019-05-25T07:51:23.718Z,7272.00
2019-05-25T07:52:23.709Z,7336.00
2019-05-25T07:53:23.725Z,7248.00
2019-05-25T07:54:23.679Z,6924.00
2019-05-25T07:55:23.687Z,6696.00
2019-05-25T07:56:23.665Z,6532.00
2019-05-25T07:57:23.645Z,6572.00
2019-05-25T07:58:23.629Z,6772.00
2019-05-25T07:59:23.628Z,6836.00
2019-05-25T08:00:23.645Z,6816.00
2019-05-25T08:01:23.611Z,6776.00
2019-05-25T08:02:23.598Z,6684.00
2019-05-25T08:03:23.582Z,6680.00
2019-05-25T08:04:23.569Z,6724.00
2019-05-25T08:05:23.578Z,6664.00
2019-05-25T08:06:23.548Z,6764.00
2019-05-25T08:07:23.551Z,6896.00
2019-05-25T08:08:23.530Z,6984.00
2019-05-25T08:09:23.511Z,7400.00
2019-05-25T08:10:23.563Z,7764.00
2019-05-25T08:11:23.499Z,8092.00
2019-05-25T08:12:23.489Z,8344.00
2019-05-25T08:13:23.469Z,8464.00
2019-05-25T08:14:23.472Z,8392.00
2019-05-25T08:15:23.489Z,8372.00
2019-05-25T08:16:23.441Z,8392.00
2019-05-25T08:17:23.450Z,8448.00
2019-05-25T08:18:23.426Z,8560.00
2019-05-25T08:19:23.404Z,8736.00
2019-05-25T08:20:23.410Z,8968.00
2019-05-25T08:21:23.390Z,9244.00
2019-05-25T08:22:23.380Z,9596.00
2019-05-25T08:23:23.389Z,9808.00
2019-05-25T08:24:23.363Z,9992.00
2019-05-25T08:25:23.367Z,10160.00
2019-05-25T08:26:23.330Z,10524.00
2019-05-25T08:27:23.321Z,10796.00
2019-05-25T08:28:32.165Z,10880.00
2019-05-25T08:29:24.294Z,10844.00
2019-05-25T08:30:23.309Z,10660.00
2019-05-25T08:31:23.282Z,10460.00
2019-05-25T08:32:23.292Z,10184.00
2019-05-25T08:33:23.252Z,9660.00
2019-05-25T08:34:23.249Z,9132.00
2019-05-25T08:35:23.251Z,8808.00
2019-05-25T08:36:23.221Z,8672.00
2019-05-25T08:37:23.208Z,8596.00
2019-05-25T08:38:23.199Z,8628.00
2019-05-25T08:39:23.181Z,8768.00
2019-05-25T08:40:23.197Z,8656.00
2019-05-25T08:41:23.178Z,8704.00
2019-05-25T08:42:23.161Z,8112.00
2019-05-25T08:43:23.141Z,7672.00
2019-05-25T08:44:23.142Z,7536.00
2019-05-25T08:45:25.863Z,7836.00
2019-05-25T08:46:23.112Z,8192.00
2019-05-25T08:47:23.122Z,8460.00
2019-05-25T08:48:23.085Z,8592.00
2019-05-25T08:49:23.080Z,8824.00
2019-05-25T08:50:37.217Z,9020.00
2019-05-25T08:51:24.065Z,9024.00
2019-05-25T08:52:23.051Z,9068.00
2019-05-25T08:53:39.552Z,9048.00
2019-05-25T08:54:24.041Z,9096.00
2019-05-25T08:55:23.035Z,9180.00
2019-05-25T08:56:23.015Z,8984.00
2019-05-25T08:57:22.991Z,8696.00
2019-05-25T08:58:22.981Z,8664.00
2019-05-25T08:59:22.973Z,8768.00
2019-05-25T09:00:22.978Z,9008.00
2019-05-25T09:01:22.960Z,9036.00
2019-05-25T09:02:22.933Z,8992.00
2019-05-25T09:03:22.936Z,8992.00
2019-05-25T09:04:25.605Z,9028.00
2019-05-25T09:05:22.911Z,9064.00
2019-05-25T09:06:22.916Z,9092.00
2019-05-25T09:07:22.874Z,9152.00
2019-05-25T09:08:22.864Z,9340.00
2019-05-25T09:09:22.890Z,9488.00
2019-05-25T09:10:22.854Z,9680.00
2019-05-25T09:11:22.866Z,9796.00
2019-05-25T09:12:22.826Z,9848.00
2019-05-25T09:13:22.815Z,10052.00
2019-05-25T09:14:22.827Z,10092.00
2019-05-25T09:15:22.800Z,10172.00
2019-05-25T09:16:22.834Z,10380.00
2019-05-25T09:17:22.826Z,10420.00
2019-05-25T09:18:22.814Z,10568.00
2019-05-25T09:19:22.748Z,10668.00
2019-05-25T09:20:22.812Z,10812.00
2019-05-25T09:21:22.845Z,11104.00
2019-05-25T09:22:22.714Z,11364.00
2019-05-25T09:23:22.705Z,11560.00
2019-05-25T09:24:22.692Z,11612.00
2019-05-25T09:25:22.685Z,11612.00
2019-05-25T09:26:22.695Z,11632.00
2019-05-25T09:27:22.665Z,11804.00
2019-05-25T09:28:22.655Z,12092.00
2019-05-25T09:29:22.697Z,12292.00
2019-05-25T09:30:22.640Z,12420.00
2019-05-25T09:31:22.646Z,12468.00
2019-05-25T09:32:22.675Z,12528.00
2019-05-25T09:33:22.596Z,12528.00
2019-05-25T09:34:22.587Z,12512.00
2019-05-25T09:35:22.577Z,12416.00
2019-05-25T09:36:22.575Z,12324.00
2019-05-25T09:37:22.545Z,12272.00
2019-05-25T09:38:22.543Z,12332.00
2019-05-25T09:39:22.558Z,12372.00
2019-05-25T09:40:22.517Z,12452.00
2019-05-25T09:41:22.528Z,12520.00
2019-05-25T09:42:22.500Z,12560.00
2019-05-25T09:43:22.485Z,12584.00
2019-05-25T09:44:22.477Z,12552.00
2019-05-25T09:45:22.494Z,12444.00
2019-05-25T09:46:22.478Z,12424.00
2019-05-25T09:47:22.466Z,12376.00
2019-05-25T09:48:22.467Z,12408.00
2019-05-25T09:49:22.436Z,12444.00
2019-05-25T09:50:22.418Z,12424.00
2019-05-25T09:51:22.407Z,12376.00
2019-05-25T09:52:22.407Z,12320.00
2019-05-25T09:53:22.376Z,12256.00
2019-05-25T09:54:22.368Z,12236.00
2019-05-25T09:55:22.356Z,12252.00
2019-05-25T09:56:22.360Z,12216.00
2019-05-25T09:57:22.398Z,12180.00
2019-05-25T09:58:22.320Z,12144.00
2019-05-25T09:59:22.316Z,12160.00
2019-05-25T10:00:22.300Z,12144.00
2019-05-25T10:01:22.303Z,12104.00
2019-05-25T10:02:22.338Z,12064.00
2019-05-25T10:03:22.279Z,12040.00
2019-05-25T10:04:22.266Z,11996.00
2019-05-25T10:05:22.272Z,11936.00
2019-05-25T10:06:22.239Z,11896.00
2019-05-25T10:07:22.329Z,11904.00
2019-05-25T10:08:22.242Z,11884.00
2019-05-25T10:09:22.229Z,11876.00
2019-05-25T10:10:22.331Z,11776.00
2019-05-25T10:11:22.189Z,11660.00
2019-05-25T10:12:22.191Z,11544.00
2019-05-25T10:13:22.161Z,11420.00
2019-05-25T10:14:22.155Z,11340.00
2019-05-25T10:15:22.154Z,11296.00
2019-05-25T10:16:22.130Z,11264.00
2019-05-25T10:17:22.147Z,11244.00
2019-05-25T10:18:22.102Z,11208.00
2019-05-25T10:19:22.117Z,11136.00
2019-05-25T10:20:22.089Z,11124.00
2019-05-25T10:21:22.105Z,11128.00
2019-05-25T10:22:22.261Z,11144.00
2019-05-25T10:23:22.051Z,11200.00
2019-05-25T10:24:22.057Z,11252.00
2019-05-25T10:25:22.031Z,11296.00
2019-05-25T10:26:23.137Z,11384.00
2019-05-25T10:27:22.034Z,11488.00
2019-05-25T10:28:22.001Z,11632.00
2019-05-25T10:29:36.129Z,11816.00
2019-05-25T10:30:22.992Z,11984.00
2019-05-25T10:31:21.962Z,12104.00
2019-05-25T10:32:22.010Z,12116.00
2019-05-25T10:33:22.020Z,12072.00
2019-05-25T10:34:21.934Z,11980.00
2019-05-25T10:35:21.932Z,11896.00
2019-05-25T10:36:21.941Z,11800.00
2019-05-25T10:37:21.936Z,11684.00
2019-05-25T10:38:21.884Z,11564.00
2019-05-25T10:39:21.872Z,11500.00
2019-05-25T10:40:21.862Z,11500.00
2019-05-25T10:41:21.864Z,11464.00
2019-05-25T10:42:21.914Z,11396.00
2019-05-25T10:43:21.832Z,11360.00
2019-05-25T10:44:21.822Z,11364.00
2019-05-25T10:45:21.812Z,11404.00
2019-05-25T10:46:21.806Z,11360.00
2019-05-25T10:47:21.871Z,11204.00
2019-05-25T10:48:21.804Z,11068.00
2019-05-25T10:49:21.766Z,11044.00
2019-05-25T10:50:21.767Z,11028.00
2019-05-25T10:51:21.745Z,10916.00
2019-05-25T10:52:21.744Z,10760.00
2019-05-25T10:53:21.783Z,10560.00
2019-05-25T10:54:21.747Z,10352.00
2019-05-25T10:55:21.704Z,10160.00
2019-05-25T10:56:21.692Z,10060.00
2019-05-25T10:57:21.694Z,9944.00
2019-05-25T10:58:21.693Z,9828.00
2019-05-25T10:59:21.673Z,9692.00
2019-05-25T11:00:21.653Z,9596.00
2019-05-25T11:01:21.642Z,9544.00
2019-05-25T11:02:21.630Z,9492.00
2019-05-25T11:03:21.633Z,9420.00
2019-05-25T11:04:21.605Z,9360.00
2019-05-25T11:05:21.611Z,9364.00
2019-05-25T11:06:21.587Z,9420.00
2019-05-25T11:07:21.586Z,9544.00
2019-05-25T11:08:21.576Z,9656.00
2019-05-25T11:09:21.564Z,9692.00
2019-05-25T11:10:21.547Z,9740.00
2019-05-25T11:11:21.531Z,9840.00
2019-05-25T11:12:21.516Z,10036.00
2019-05-25T11:13:21.527Z,10180.00
2019-05-25T11:14:21.496Z,10232.00
2019-05-25T11:15:21.493Z,10164.00
2019-05-25T11:16:21.475Z,10076.00
2019-05-25T11:17:21.476Z,9972.00
2019-05-25T11:18:21.476Z,9836.00
2019-05-25T11:19:24.187Z,9768.00
2019-05-25T11:20:21.433Z,9668.00
2019-05-25T11:21:21.418Z,9456.00
2019-05-25T11:22:21.426Z,9240.00
2019-05-25T11:23:21.433Z,9280.00
2019-05-25T11:24:21.389Z,9332.00
2019-05-25T11:25:21.369Z,9412.00
2019-05-25T11:26:21.381Z,9524.00
2019-05-25T11:27:21.360Z,9652.00
2019-05-25T11:28:21.414Z,9832.00
2019-05-25T11:29:21.330Z,9988.00
2019-05-25T11:30:21.343Z,10184.00
2019-05-25T11:31:21.308Z,10276.00
2019-05-25T11:32:21.299Z,10232.00
2019-05-25T11:33:21.308Z,10336.00
2019-05-25T11:34:21.279Z,10468.00
2019-05-25T11:35:21.271Z,10584.00
2019-05-25T11:36:21.264Z,10652.00
2019-05-25T11:37:21.239Z,10648.00
2019-05-25T11:38:21.251Z,10756.00
2019-05-25T11:39:21.245Z,10916.00
2019-05-25T11:40:21.232Z,11068.00
2019-05-25T11:41:21.213Z,11160.00
2019-05-25T11:42:21.180Z,11268.00
2019-05-25T11:43:21.204Z,11416.00
2019-05-25T11:44:21.190Z,11424.00
2019-05-25T11:45:21.160Z,11200.00
2019-05-25T11:46:28.166Z,11064.00
2019-05-25T11:47:21.134Z,10928.00
2019-05-25T11:48:21.136Z,10880.00
2019-05-25T11:49:22.773Z,11060.00
2019-05-25T11:50:21.214Z,11164.00
2019-05-25T11:51:21.188Z,11184.00
2019-05-25T11:52:21.076Z,10964.00
2019-05-25T11:53:21.130Z,10704.00
2019-05-25T11:54:21.164Z,10480.00
2019-05-25T11:55:21.048Z,10224.00
2019-05-25T11:56:21.048Z,10068.00
2019-05-25T11:57:21.036Z,10080.00
2019-05-25T11:58:21.016Z,9856.00
2019-05-25T11:59:21.026Z,9760.00
2019-05-25T12:00:25.436Z,9612.00
2019-05-25T12:01:21.998Z,9548.00
2019-05-25T12:02:20.992Z,9440.00
2019-05-25T12:03:21.008Z,9336.00
2019-05-25T12:04:20.989Z,9092.00
2019-05-25T12:05:20.984Z,8940.00
2019-05-25T12:06:20.937Z,8984.00
2019-05-25T12:07:20.959Z,9240.00
2019-05-25T12:08:20.940Z,9608.00
2019-05-25T12:09:20.899Z,10228.00
2019-05-25T12:10:20.905Z,10616.00
2019-05-25T12:11:20.881Z,10772.00
2019-05-25T12:12:20.860Z,11040.00
2019-05-25T12:13:20.858Z,10872.00
2019-05-25T12:14:20.840Z,10704.00
2019-05-25T12:15:20.849Z,10708.00
2019-05-25T12:16:20.818Z,10888.00
2019-05-25T12:17:20.808Z,10952.00
2019-05-25T12:18:20.864Z,10964.00
2019-05-25T12:19:20.842Z,10952.00
2019-05-25T12:20:20.789Z,11080.00